Rachel, Nevada Weather observations

Data are for observation ending at time listed.
 Day   Time    Ave.   Ave.  Ave.  Vector   Max.   Stn.    Total    Solar   Ave.  
  of    of     Air    Rel.  Wind   Wind    Wind   Baro.  Precip.   Rad.    Soil  
Year   Day     Temp.  Hum.  Speed  Dir.    Gust   Pres.                    Temp. 
2014   (PST)    F      %     mph   deg.    mph     mb.     in.     W/m2     F   
------------------------------------------------------------------------------
 240   12:30   86.3    13    2.4   326      6.4   858.3    0.00     651    78.4
 240   12:40   87.0    13    3.8    21      7.3   858.2    0.00     644    78.5
 240   12:50   87.9    13    3.0   169      7.5   858.1    0.00     638    78.7
 240   13:00   88.4    12    2.0   283      5.8   858.0    0.00     630    78.8
 240   13:10   89.2    12    2.9   139      7.7   857.7    0.00     623    78.9
 240   13:20   88.2    12    6.7    66     11.8   857.8    0.00     616    79.1
 240   13:30   87.9    12    7.9    45     11.7   857.7    0.00     603    79.4
 240   13:40   88.6    12    4.6    56      9.6   857.4    0.00     590    79.6
 240   13:50   88.7    12    2.9   135      6.8   857.3    0.00     576    79.6
 240   14:00   89.1    12    2.8   294      8.8   857.2    0.00     562    79.6
 240   14:10   90.4    11    4.8   254     11.6   857.1    0.00     545    79.6
 240   14:20   90.6    11    4.0   244     11.0   857.0    0.00     528    79.8
 240   14:30   90.1    11    3.5   224      8.6   856.4    0.00     509    79.8
 240   14:40   90.0    11    3.1   285      8.8   856.5    0.00     491    79.9
 240   14:50   90.4    11    4.7   264      9.6   856.3    0.00     471    79.9
 240   15:00   89.8    11    2.0   302      8.6   856.3    0.00     451    80.0
 240   15:10   90.1    11    3.6   315      9.0   856.3    0.00     429    79.9
 240   15:20   90.2    11    3.4   269      7.4   856.1    0.00     408    80.0
 240   15:30   90.9    11    4.9   265     10.9   856.0    0.00     386    80.1
 240   15:40   90.4    11    6.8   278     12.1   855.8    0.00     362    80.3
 240   15:50   90.5    11    5.2   253     10.7   855.5    0.00     338    80.5
 240   16:00   90.1    11    2.9   300      5.8   855.3    0.00     314    80.5
 240   16:10   89.5    11    5.4   352     10.0   855.2    0.00     292    80.5
 240   16:20   90.2    11    2.3   286      6.1   855.2    0.00     266    80.6
 240   16:30   89.9    11    3.3   318      8.1   855.1    0.00     242    80.7
 240   16:40   90.1    11    1.8    53      4.4   855.0    0.00     218    80.6
 240   16:50   90.0    11    3.8     5      7.2   855.0    0.00     193    80.7
 240   17:00   90.5    11    3.9   286      8.7   855.0    0.00     168    80.8
 240   17:10   90.1    11    3.1   325      6.3   855.0    0.00     144    80.7
 240   17:20   90.7    10    1.9   294      5.0   854.8    0.00     122    80.8
 240   17:30   90.1    11    2.5   328      5.6   854.7    0.00     101    80.7
 240   17:40   89.8    11    3.2   353      5.0   854.7    0.00      75    80.8
 240   17:50   89.1    11    2.2   351      3.9   854.9    0.00      48    80.7
 240   18:00   88.6    11    1.7    28      3.8   854.8    0.00      29    80.5
 240   18:10   87.2    12    1.6    30      2.2   854.5    0.00      15    80.3
 240   18:20   85.4    13    0.6    31      1.7   854.5    0.00       7    80.0
 240   18:30   83.9    14    5.4   238     11.5   854.4    0.00       3    79.7
 240   18:40   83.6    14    5.9   223      8.3   854.4    0.00       2    79.6
 240   18:50   80.9    16    7.2   212      9.1   854.1    0.00       0    79.4
 240   19:00   80.5    15    8.5   217     14.0   853.8    0.00       0    79.0
 240   19:10   81.3    14   10.3   221     15.6   853.6    0.00       0    79.1
 240   19:20   81.6    14   11.7   221     15.9   853.7    0.00       0    78.8
 240   19:30   81.4    14   11.1   223     15.7   853.5    0.00       0    78.6
 240   19:40   81.5    14   10.2   223     17.0   853.5    0.00       0    78.5
 240   19:50   81.6    14   12.6   221     17.7   853.5    0.00       0    78.5
 240   20:00   81.2    14   11.9   221     18.3   853.6    0.00       0    78.4
 240   20:10   81.2    14   11.0   224     17.0   853.8    0.00       0    78.3
 240   20:20   81.2    14   11.1   223     16.5   853.9    0.00       0    78.1
 240   20:30   81.1    14   12.3   223     17.7   853.9    0.00       0    78.0
 240   20:40   80.3    14    8.2   216     14.4   853.9    0.00       0    77.8
 240   20:50   80.1    14    7.9   188     13.8   853.9    0.00       0    77.7
 240   21:00   77.3    16    6.5   351     14.2   853.9    0.00       0    77.4
 240   21:10   75.0    17    8.1    13     14.5   854.0    0.00       0    76.9
 240   21:20   73.8    18    4.6    72      7.0   853.7    0.00       0    76.6
 240   21:30   73.3    19    3.7   109      7.2   853.2    0.00       0    76.2
 240   21:40   72.5    20    9.3    66     12.2   853.2    0.00       0    75.9
 240   21:50   70.2    22    8.8    75     11.4   853.1    0.00       0    75.5
 240   22:00   69.4    23    7.9    75     11.0   853.0    0.00       0    75.2
 240   22:10   69.2    23    9.3    66     12.2   852.9    0.00       0    74.9
 240   22:20   71.7    20    9.0    59     12.1   852.9    0.00       0    74.8
 240   22:30   68.7    23    5.7    50      8.0   852.9    0.00       0    74.6
 240   22:40   67.7    24    3.5    82      4.6   852.8    0.00       0    74.2
 240   22:50   67.3    25    5.1    76      6.6   852.7    0.00       0    73.9
 240   23:00   67.4    25    5.7    72      7.7   852.6    0.00       0    73.7
 240   23:10   68.5    23    4.4    78      6.2   852.6    0.00       0    73.5
 240   23:20   68.3    24    4.3    38      6.6   852.6    0.00       0    73.3
 240   23:30   62.0    29    3.7   339      5.7   852.6    0.00       0    73.1
 240   23:40   61.6    30    0.5   327      1.8   852.5    0.00       0    72.7
 240   23:50   61.6    30    0.2   326      0.9   852.8    0.00       0    72.5
 241    0:00   60.8    32    1.4   224      4.0   852.5    0.00       0    72.3
 241    0:10   60.6    32    1.6   215      3.7   852.5    0.00       0    72.1
 241    0:20   59.3    33    2.8   215      4.1   852.4    0.00       0    71.7
 241    0:30   59.1    34    2.9   215      4.1   852.2    0.00       0    71.4
 241    0:40   59.2    33    2.5   215      3.4   852.2    0.00       0    71.2
 241    0:50   59.2    33    1.6   215      2.3   852.3    0.00       0    70.9
 241    1:00   58.6    34    1.7   215      2.6   852.1    0.00       0    70.8
 241    1:10   58.0    35    1.1   215      1.8   852.0    0.00       0    70.4
 241    1:20   57.7    35    0.4   215      0.9   852.0    0.00       0    70.2
 241    1:30   56.9    36    0.6   215      1.8   852.0    0.00       0    70.0
 241    1:40   57.0    36    1.9   217      3.4   851.9    0.00       0    69.8
 241    1:50   56.3    36    2.2   228      3.4   851.8    0.00       0    69.6
 241    2:00   56.1    37    1.6   236      2.7   851.6    0.00       0    69.5
 241    2:10   55.9    37    2.1   232      2.9   851.5    0.00       0    69.3
 241    2:20   56.4    36    1.4   238      2.6   851.4    0.00       0    69.1
 241    2:30   56.4    38    0.4   241      0.9   851.4    0.00       0    69.0
 241    2:40   56.4    38    0.2   268      1.8   851.5    0.00       0    68.8
 241    2:50   56.5    38    0.7   268      1.9   851.8    0.00       0    68.6
 241    3:00   55.3    41    0.2   263      0.7   851.8    0.00       0    68.5
 241    3:10   54.9    42    0.5   227      1.3   851.7    0.00       0    68.3
 241    3:20   54.1    42    0.3   244      1.2   851.5    0.00       0    68.2
 241    3:30   53.4    42    0.9   259      1.3   851.6    0.00       0    67.7
 241    3:40   52.3    44    2.2   192      5.0   851.9    0.00       0    67.5
 241    3:50   52.4    44    3.8   220      4.6   851.6    0.00       0    67.2
 241    4:00   52.5    43    3.7   229      5.3   851.3    0.00       0    67.1
 241    4:10   52.9    42    0.8   279      3.4   850.8    0.00       0    67.0
 241    4:20   52.6    43    0.3   316      1.2   850.8    0.00       0    66.9
 241    4:30   52.8    42    0.4   316      1.3   850.7    0.00       0    66.7
 241    4:40   53.0    44    0.6   316      1.3   850.9    0.00       0    66.5
 241    4:50   52.3    45    0.3   316      0.8   851.3    0.00       0    66.3
 241    5:00   51.6    46    0.6   316      1.6   851.5    0.00       0    66.1
 241    5:10   50.8    47    1.8   317      3.1   851.6    0.00       2    65.9
 241    5:20   51.5    46    2.3    86      5.0   851.8    0.00       3    65.7
 241    5:30   52.4    45    6.3   118      6.9   851.8    0.00       7    65.5
 241    5:40   54.3    41    6.1   121      6.6   851.7    0.00      25    65.4
 241    5:50   54.3    42    3.4   121      5.8   851.9    0.00      49    65.5
 241    6:00   54.8    41    0.7   127      1.8   852.2    0.00      75    65.9
 241    6:10   56.3    41    0.5   127      1.7   852.5    0.00      98    66.5
 241    6:20   58.3    38    0.0   127      0.4   852.7    0.00     122    67.0
 241    6:30   58.9    38    0.2   127      0.9   852.9    0.00     147    67.4
 241    6:40   58.2    37    1.0   119      1.7   853.1    0.00     174    67.1
 241    6:50   58.9    37    1.5   122      2.4   853.3    0.00     197    67.4
 241    7:00   60.2    33    1.4   114      2.1   853.5    0.00     222    68.0
 241    7:10   61.7    31    0.9   114      1.6   853.7    0.00     250    68.7
 241    7:20   64.4    28    0.2   114      1.4   854.0    0.00     282    69.5
 241    7:30   66.2    26    0.7   114      2.0   854.1    0.00     246    70.3
 241    7:40   66.6    26    0.3   114      1.7   854.2    0.00     258    70.7
 241    7:50   68.9    24    0.1   114      1.4   854.3    0.00     367    71.4
 241    8:00   70.8    24    0.7   116      2.0   854.6    0.00     419    72.2
 241    8:10   71.7    22    0.0   113      0.7   854.6    0.00     337    72.9
 241    8:20   73.0    22    1.5   355      4.3   854.6    0.00     495    73.5
 241    8:30   73.0    21    1.8   322      4.0   854.9    0.00     534    74.3
 241    8:40   74.1    20    2.8   310      6.0   855.4    0.00     483    75.1
 241    8:50   73.6    20    1.6   312      3.4   855.3    0.00     192    75.3
 241    9:00   74.4    20    1.3   309      3.4   855.3    0.00     219    74.9
 241    9:10   74.7    19    1.7   299      3.1   855.3    0.00     274    74.9
 241    9:20   75.8    19    1.4   315      2.6   855.2    0.00     423    75.4
 241    9:30   78.4    16    0.4   344      2.2   855.2    0.00     498    75.9
 241    9:40   79.8    16    1.1   348      2.6   855.3    0.00     597    76.2
 241    9:50   80.9    15    0.9   109      3.0   855.2    0.00     559    76.3
 241   10:00   82.3    14    0.9    70      3.1   855.3    0.00     501    76.6
 241   10:10   82.5    14    1.4   355      3.2   855.5    0.00     614    76.6
 241   10:20   84.1    14    1.7     6      4.2   855.5    0.00     642    76.7
 241   10:30   85.0    14    2.3    56      6.4   855.6    0.00     518    77.0
 241   10:40   85.3    13    2.9    59      6.9   855.6    0.00     545    77.4
 241   10:50   85.9    13    2.8    58      6.4   855.4    0.00     605    77.9
 241   11:00   87.0    13    4.5    62      6.8   855.5    0.00     680    78.5
 241   11:10   87.9    12    2.7   335      7.7   855.5    0.00     602    79.0
 241   11:20   88.4    12    2.8   333      7.2   855.4    0.00     593    79.4
 241   11:30   89.1    12    3.8    47     10.7   855.1    0.00     677    79.7
 241   11:40   90.6    11    3.8   239     11.8   855.1    0.00     686    80.0
 241   11:50   91.2    10    7.8   259     15.6   855.1    0.00     652    80.3
 241   12:00   91.5    11   10.4   228     20.8   855.0    0.00     584    80.5
 241   12:10   90.0    11    9.8   235     15.6   855.2    0.00     444    80.9
 241   12:20   90.4    11    8.2   227     15.5   855.3    0.00     613    81.1

Return to St. George, Utah graphs page.


Western Regional Climate Center,wrcc@dri.edu